Classifiche di sempre
Migliori tempi personali validi di team tra tutti gli eventi e le stagioni. Ogni team compare una sola volta per divisione.
Cerca per nome e apri la pagina in cui è classificato questo record di divisione.
23,833 team in classifica
| Pos. | Pos. AG | Team | Nazionalità | Categoria età | TempoMiglior tempo | Distacco |
|---|---|---|---|---|---|---|
| 17501 | #1976 | Alistair Craig & Robert Lindsay & Robert LindsayGBR · M 40-44 · AG #1976 | GBR | M 40-44 | 1:17:52 | +29:21 |
| 17502 | #1977 | Manish Patel & Rahul PatelGBR · M 40-44 · AG #1977 | GBR | M 40-44 | 1:17:52 | +29:21 |
| 17503 | #411 | Conor O'Riain & Gavin McMorrowIRL · M 45-49 · AG #411 | IRL | M 45-49 | 1:17:52 | +29:21 |
| 17504 | #1023 | Corey Norman & Brandon MurilloGBR · M 16-24 · AG #1023 | GBR | M 16-24 | 1:17:53 | +29:22 |
| 17505 | #7060 | Jeremy Maillet & Erik BurtonCAN · M 30-34 · AG #7060 | CAN | M 30-34 | 1:17:53 | +29:22 |
| 17506 | #7061 | Stephen Lozier & Kevin BihannicFRA · M 30-34 · AG #7061 | FRA | M 30-34 | 1:17:53 | +29:22 |
| 17507 | #1978 | Murray O'Grady & Liam CarforaAUS · M 40-44 · AG #1978 | AUS | M 40-44 | 1:17:53 | +29:22 |
| 17508 | #7062 | Aaron Wornes & Matt ClarkGBR · M 30-34 · AG #7062 | GBR | M 30-34 | 1:17:53 | +29:22 |
| 17509 | #7063 | Sean Ripley & Tom StrideM 30-34 · AG #7063 | -- | M 30-34 | 1:17:53 | +29:22 |
| 17510 | #7066 | Duncan Koh & Aaron TanSIN · M 30-34 · AG #7066 | SIN | M 30-34 | 1:17:53 | +29:22 |
| 17511 | -- | Connor Tarabanov & Timothy-Keith Naylor GassRSA · M MU29 | RSA | M MU29 | 1:17:53 | +29:22 |
| 17512 | #7065 | Marc Seah & Eric HuM 30-34 · AG #7065 | -- | M 30-34 | 1:17:53 | +29:22 |
| 17513 | #7064 | James Campbell & William DavisGBR · M 30-34 · AG #7064 | GBR | M 30-34 | 1:17:53 | +29:22 |
| 17514 | #7067 | Alberto Sosa Sanchez & Ricardo Cabrera HuertaMEX · M 30-34 · AG #7067 | MEX | M 30-34 | 1:17:53 | +29:22 |
| 17515 | #1979 | Max Lee & Sean ChooSIN · M 40-44 · AG #1979 | SIN | M 40-44 | 1:17:53 | +29:22 |
| 17516 | #7068 | Svein Jørgen Haugen & Erlend BjelkarøyNOR · M 30-34 · AG #7068 | NOR | M 30-34 | 1:17:53 | +29:22 |
| 17517 | #7069 | Bruno Silva Do Nascimento & Yuri Costa De LimaBRA · M 30-34 · AG #7069 | BRA | M 30-34 | 1:17:53 | +29:22 |
| 17518 | #2863 | Leonardo Raggetti & Davide FrezziITA · M 25-29 · AG #2863 | ITA | M 25-29 | 1:17:53 | +29:22 |
| 17519 | #1980 | Terence Oosterling & Ruud SjollemaNED · M 40-44 · AG #1980 | NED | M 40-44 | 1:17:53 | +29:22 |
| 17520 | #2864 | Rodrigo Zamora Narváez & Jorge Arturo López TostadoMEX · M 25-29 · AG #2864 | MEX | M 25-29 | 1:17:53 | +29:22 |
| 17521 | #2615 | ferenc odor & aron jelencsicsHUN · M 35-39 · AG #2615 | HUN | M 35-39 | 1:17:54 | +29:23 |
| 17522 | #7070 | Tim Schirmer & Deniz Kücükbudak JodasGER · M 30-34 · AG #7070 | GER | M 30-34 | 1:17:54 | +29:23 |
| 17523 | #1024 | André Prudhomme & Jorge AlvaMEX · M 16-24 · AG #1024 | MEX | M 16-24 | 1:17:54 | +29:23 |
| 17524 | #2616 | John Jørgensen & Christian KarlsenDEN · M 35-39 · AG #2616 | DEN | M 35-39 | 1:17:54 | +29:23 |
| 17525 | #1025 | Ola Thorsen & Jens ThorsenNOR · M 16-24 · AG #1025 | NOR | M 16-24 | 1:17:54 | +29:23 |
Pagina 701 di 954